Impacts TAF Board INFO
FOR SITUATIONAL AWARENESS. NOT TO BE USED FOR FLIGHT PLANNING PURPOSES.
IDs:

KFLL - Ft Lauderdale-Hollyw, FL, US

Issued at 1144 UTC 21 May 2018
Updated at 1308 UTC 21 May 2018
Potential Impact None Slight Moderate High
Time<<22/02Z 22/03Z 22/04Z 22/05Z 22/06Z 22/07Z 22/08Z 22/09Z 22/10Z 22/11Z 22/12Z 22/13Z 22/14Z>>
Type PRVL PRVL PRVL PRVL PRVL PRVL PRVL PRVL PRVL PRVL PRVL PRVL PRVL
VIS >6 >6 >6 >6 >6 >6 >6 >6 >6 >6 >6 >6 >6
CIG 80 80 80 80 80 80 80 80 80 80 80 80 80
Cover BKN BKN BKN BKN BKN BKN BKN BKN BKN BKN BKN BKN BKN
FltCat VFR VFR VFR VFR VFR VFR VFR VFR VFR VFR VFR VFR VFR
WX -- -- -- -- -- -- -- -- -- -- -- -- --
WDir 120 120 120 120 120 120 120 120 120 120 120 120 120
WSpd 8 8 8 8 8 8 8 8 8 8 8 8 8
WGst -- -- -- -- -- -- -- -- -- -- -- -- --

Raw TAF
KFLL 211144Z 2112/2218 11015KT P6SM VCSH SCT021 BKN040 BKN080
  TEMPO 2112/2115 4SM SHRA BKN018
  FM211700 13015G22KT P6SM SCT025 BKN040 BKN120
  FM212100 12015KT P6SM OVC050
  FM220200 12008KT P6SM SCT020 BKN080 BKN150


METAR Board
Radar Display
Forecast Discussion

FOR SITUATIONAL AWARENESS. NOT TO BE USED FOR FLIGHT PLANNING PURPOSES.